Time;durP1;ratioP1;P1;durP2;ratioP2;P2;SDS_P1;SDS_P2;PMS_P1;PMS_P2;Temp;Humidity;BMP_temperature;BMP_pressure;BME280_temperature;BME280_humidity;BME280_pressure;Samples;Min_cycle;Max_cycle;Signal;HPM_P1;HPM_P2
2022/09/21 00:01:30;;;;;;;;;1.33;1.00;;;;;12.84;68.79;100812.09;5078458;28;45454;-71
2022/09/21 00:04:02;;;;;;;;;1.33;1.00;;;;;12.71;69.77;100803.06;5077018;27;45445;-71
2022/09/21 00:06:30;;;;;;;;;2.00;1.00;;;;;12.76;69.25;100816.25;5078736;27;45514;-72
2022/09/21 00:08:56;;;;;;;;;0.00;0.00;;;;;12.76;69.13;100813.63;5078612;28;45248;-70
2022/09/21 00:11:26;;;;;;;;;1.00;0.67;;;;;12.79;69.66;100815.44;5078288;27;45491;-70
2022/09/21 00:14:00;;;;;;;;;0.67;0.67;;;;;12.73;69.85;100814.47;5078352;27;45344;-72
2022/09/21 00:16:26;;;;;;;;;0.00;0.00;;;;;12.68;69.35;100804.69;5078237;28;45485;-72
2022/09/21 00:18:52;;;;;;;;;1.00;0.33;;;;;12.74;69.54;100812.72;5078490;28;45328;-71
2022/09/21 00:21:18;;;;;;;;;1.00;1.00;;;;;12.70;69.76;100811.75;5078067;28;45555;-69
2022/09/21 00:23:44;;;;;;;;;1.00;1.00;;;;;12.59;69.71;100792.22;5078187;28;45493;-68
2022/09/21 00:26:12;;;;;;;;;0.33;0.00;;;;;12.68;70.50;100809.94;5078161;28;45360;-69
2022/09/21 00:28:39;;;;;;;;;1.00;1.00;;;;;12.62;70.48;100810.66;5078234;28;45348;-70
2022/09/21 00:31:07;;;;;;;;;1.00;1.00;;;;;12.59;70.51;100812.31;5063798;28;45506;-70
2022/09/21 00:33:33;;;;;;;;;1.25;1.00;;;;;12.60;70.34;100808.88;5057884;28;45490;-69
2022/09/21 00:36:05;;;;;;;;;1.50;0.75;;;;;12.61;69.96;100802.75;5058416;28;45774;-69
2022/09/21 00:38:31;;;;;;;;;1.25;1.00;;;;;12.62;70.09;100804.53;5058032;28;45339;-70
2022/09/21 00:40:57;;;;;;;;;1.00;1.00;;;;;12.56;70.07;100794.78;5057544;28;45501;-69
2022/09/21 00:43:22;;;;;;;;;1.00;1.00;;;;;12.57;70.12;100798.28;5057454;28;45354;-70
2022/09/21 00:45:51;;;;;;;;;1.00;0.33;;;;;12.55;69.79;100800.84;5057680;28;45346;-69
2022/09/21 00:48:17;;;;;;;;;2.00;1.00;;;;;12.55;70.24;100806.09;5058016;28;45185;-70
2022/09/21 00:50:52;;;;;;;;;2.25;1.50;;;;;12.58;69.98;100810.56;5057233;28;46012;-69
2022/09/21 00:53:21;;;;;;;;;1.00;1.00;;;;;11.71;70.04;100663.31;5057471;28;45417;-69
2022/09/21 00:55:53;;;;;;;;;1.00;1.00;;;;;12.47;70.16;100789.28;5057441;28;45405;-69
2022/09/21 00:58:26;;;;;;;;;1.00;0.50;;;;;12.45;70.58;100789.25;5057487;28;45515;-73
2022/09/21 01:00:52;;;;;;;;;1.00;1.00;;;;;12.56;70.07;100797.41;5057193;28;45742;-71
2022/09/21 01:03:18;;;;;;;;;1.00;1.00;;;;;12.31;69.80;100767.97;5057317;28;45462;-72
2022/09/21 01:05:43;;;;;;;;;1.33;1.33;;;;;11.97;70.04;100698.06;5057338;28;45301;-71
2022/09/21 01:08:12;;;;;;;;;2.50;1.00;;;;;12.48;70.12;100786.72;5057470;28;45340;-69
2022/09/21 01:11:10;;;;;;;;;2.00;1.00;;;;;12.43;70.41;100790.06;5057070;28;45674;-71
2022/09/21 01:13:45;;;;;;;;;1.00;1.00;;;;;12.42;70.29;100796.16;5039393;28;45450;-69
2022/09/21 01:16:40;;;;;;;;;1.00;1.00;;;;;12.33;70.06;100781.97;5057352;28;45502;-68
2022/09/21 01:19:27;;;;;;;;;1.00;1.00;;;;;12.43;70.38;100793.56;5057641;28;45469;-70
2022/09/21 01:22:12;;;;;;;;;2.00;1.75;;;;;12.43;70.32;100793.56;5039007;28;46759;-72
2022/09/21 01:25:02;;;;;;;;;1.00;1.00;;;;;12.42;69.83;100790.94;5057123;28;45446;-70
2022/09/21 01:27:49;;;;;;;;;0.25;0.25;;;;;12.37;69.99;100788.16;5055661;28;45425;-72
2022/09/21 01:30:19;;;;;;;;;2.00;1.00;;;;;12.30;70.76;100781.88;5063929;28;45505;-72
2022/09/21 01:32:54;;;;;;;;;2.00;1.00;;;;;12.31;70.48;100788.00;5077171;27;45455;-71
2022/09/21 01:35:27;;;;;;;;;2.50;1.00;;;;;12.28;70.69;100782.69;5077051;28;45515;-70
2022/09/21 01:37:58;;;;;;;;;2.00;1.00;;;;;12.22;71.00;100772.06;5076898;28;45507;-72
2022/09/21 01:40:35;;;;;;;;;1.75;1.75;;;;;12.18;70.42;100763.22;5076031;28;45538;-72
2022/09/21 01:43:03;;;;;;;;;1.00;1.00;;;;;12.26;70.22;100769.56;5076984;27;46029;-69
2022/09/21 01:45:33;;;;;;;;;1.00;1.00;;;;;12.20;71.06;100764.16;5075736;28;45389;-71
2022/09/21 01:48:00;;;;;;;;;1.00;1.00;;;;;12.19;70.98;100777.19;5077163;27;45301;-71
2022/09/21 01:50:31;;;;;;;;;1.00;1.00;;;;;12.20;71.13;100776.38;5077571;28;45270;-71
2022/09/21 01:53:12;;;;;;;;;1.25;1.00;;;;;12.08;70.88;100753.34;5080406;28;45277;-72
2022/09/21 01:55:54;;;;;;;;;2.00;1.00;;;;;12.11;70.99;100759.53;5080797;28;45574;-70
2022/09/21 01:58:41;;;;;;;;;1.25;1.25;;;;;12.16;71.07;100775.41;5080472;28;45511;-71
2022/09/21 02:01:11;;;;;;;;;1.75;1.75;;;;;12.14;70.79;100766.63;5079576;28;45575;-68
2022/09/21 02:03:49;;;;;;;;;1.75;1.00;;;;;12.08;71.37;100766.44;5080603;28;46031;-73
2022/09/21 02:06:16;;;;;;;;;1.00;1.00;;;;;11.87;71.33;100733.53;5080284;27;45474;-68
2022/09/21 02:08:43;;;;;;;;;0.25;0.25;;;;;12.00;71.75;100766.22;5080391;28;45465;-68
2022/09/21 02:11:12;;;;;;;;;0.25;0.00;;;;;11.85;71.67;100739.59;5080887;28;45255;-71
2022/09/21 02:13:42;;;;;;;;;1.50;1.00;;;;;11.97;71.60;100755.66;5079137;28;46969;-68
2022/09/21 02:16:34;;;;;;;;;2.00;1.50;;;;;11.92;71.45;100745.06;5080267;28;45479;-69
2022/09/21 02:19:25;;;;;;;;;0.00;0.00;;;;;12.06;71.29;100760.28;5078846;28;45265;-69
2022/09/21 02:22:05;;;;;;;;;1.00;1.00;;;;;12.04;71.34;100772.44;5080326;27;45476;-72
2022/09/21 02:24:54;;;;;;;;;1.25;1.00;;;;;11.97;71.67;100749.53;5079818;28;45428;-71
2022/09/21 02:28:03;;;;;;;;;1.00;1.00;;;;;12.03;70.94;100754.94;5080028;28;45400;-71
2022/09/21 02:30:32;;;;;;;;;2.00;0.50;;;;;11.92;71.31;100734.59;5078475;28;45342;-70
2022/09/21 02:33:21;;;;;;;;;0.00;0.00;;;;;12.01;71.73;100754.91;5080136;27;45244;-71
2022/09/21 02:35:53;;;;;;;;;1.75;1.00;;;;;12.00;71.55;100755.75;5079774;28;45519;-70
2022/09/21 02:38:35;;;;;;;;;0.00;0.00;;;;;11.98;72.05;100751.31;5079814;27;45475;-71
2022/09/21 02:41:12;;;;;;;;;1.75;1.25;;;;;11.97;71.55;100750.44;5079863;28;45528;-71
2022/09/21 02:44:03;;;;;;;;;2.00;1.00;;;;;11.94;71.70;100751.25;5080215;28;45512;-69
2022/09/21 02:46:34;;;;;;;;;1.00;1.00;;;;;11.91;72.45;100750.25;5079389;28;45510;-68
2022/09/21 02:49:07;;;;;;;;;4.00;1.75;;;;;11.88;72.31;100756.28;5079474;28;45486;-68
2022/09/21 02:51:40;;;;;;;;;0.00;0.00;;;;;11.78;72.76;100737.63;5079608;28;45284;-71
2022/09/21 02:54:09;;;;;;;;;1.00;1.00;;;;;11.83;73.17;100754.38;5079773;27;45487;-70
2022/09/21 02:56:37;;;;;;;;;1.00;1.00;;;;;11.77;72.39;100736.75;5077969;28;46993;-69
2022/09/21 02:59:04;;;;;;;;;1.00;1.00;;;;;11.88;72.15;100745.81;5079284;28;45473;-69
2022/09/21 03:01:31;;;;;;;;;1.00;1.00;;;;;11.82;73.36;100750.00;5079607;27;45452;-71
2022/09/21 03:03:56;;;;;;;;;1.00;1.00;;;;;11.42;73.09;100706.97;5078305;28;45331;-72
2022/09/21 03:06:22;;;;;;;;;0.75;0.75;;;;;11.73;73.68;100745.38;5079350;28;45553;-71
2022/09/21 03:08:48;;;;;;;;;2.00;1.25;;;;;11.60;73.71;100727.53;5078099;27;45450;-71
2022/09/21 03:11:17;;;;;;;;;1.00;1.00;;;;;11.67;73.85;100747.81;5079520;28;45284;-68
2022/09/21 03:13:43;;;;;;;;;0.00;0.00;;;;;11.65;73.78;100737.28;5079933;28;45390;-69
2022/09/21 03:16:10;;;;;;;;;1.50;0.75;;;;;11.68;73.83;100749.59;5079513;28;45341;-71
2022/09/21 03:18:36;;;;;;;;;1.00;1.00;;;;;11.58;73.68;100719.66;5079263;28;45501;-71
2022/09/21 03:21:02;;;;;;;;;1.25;1.25;;;;;11.63;73.83;100728.50;5077734;27;45504;-71
2022/09/21 03:23:28;;;;;;;;;0.25;0.25;;;;;11.61;73.60;100713.63;5079430;27;45507;-72
2022/09/21 03:25:54;;;;;;;;;0.75;0.75;;;;;11.72;73.51;100723.53;5079293;28;46253;-72
2022/09/21 03:28:21;;;;;;;;;1.00;1.00;;;;;11.77;73.48;100735.88;5078889;27;45401;-72
2022/09/21 03:30:50;;;;;;;;;1.00;1.00;;;;;11.81;73.10;100740.34;5078936;28;45329;-70
2022/09/21 03:33:18;;;;;;;;;3.00;2.00;;;;;11.66;72.11;100726.00;5079206;28;45351;-70
2022/09/21 03:35:44;;;;;;;;;2.75;2.00;;;;;11.64;72.56;100722.44;5079051;28;45502;-71
2022/09/21 03:38:10;;;;;;;;;1.00;1.00;;;;;11.70;72.13;100737.44;5079230;28;45282;-71
2022/09/21 03:40:36;;;;;;;;;1.00;1.00;;;;;11.74;71.57;100742.78;5079043;27;45295;-70
2022/09/21 03:43:01;;;;;;;;;1.00;0.25;;;;;11.72;72.18;100733.13;5079035;28;45243;-69
2022/09/21 03:45:27;;;;;;;;;0.00;0.00;;;;;11.62;72.20;100715.38;5078890;28;46321;-72
2022/09/21 03:47:57;;;;;;;;;0.75;0.00;;;;;11.73;72.63;100737.50;5078714;28;45347;-72
2022/09/21 03:50:27;;;;;;;;;1.00;1.00;;;;;11.67;73.53;100729.50;5078964;27;45229;-72
2022/09/21 03:52:53;;;;;;;;;1.00;1.00;;;;;11.62;73.72;100742.44;5078908;28;45334;-71
2022/09/21 03:55:18;;;;;;;;;1.00;1.00;;;;;11.59;72.95;100720.53;5078362;28;46095;-71
2022/09/21 03:57:44;;;;;;;;;2.00;1.00;;;;;11.50;73.28;100706.34;5078936;28;45531;-72
2022/09/21 04:00:10;;;;;;;;;1.00;0.00;;;;;11.55;73.24;100711.72;5078760;27;45270;-71
2022/09/21 04:02:39;;;;;;;;;0.50;0.50;;;;;11.61;73.46;100724.09;5079000;28;45151;-69
2022/09/21 04:05:06;;;;;;;;;1.00;1.00;;;;;11.59;73.04;100718.81;5078314;28;45575;-71
2022/09/21 04:07:33;;;;;;;;;2.25;1.00;;;;;11.68;73.26;100736.50;5078329;28;45479;-68
2022/09/21 04:10:04;;;;;;;;;0.50;0.50;;;;;11.66;73.41;100735.59;5078321;28;45553;-71
2022/09/21 04:12:31;;;;;;;;;1.00;1.00;;;;;11.59;73.36;100731.88;5078429;28;45437;-70
2022/09/21 04:14:57;;;;;;;;;1.00;1.00;;;;;11.59;73.59;100726.66;5077493;27;45401;-71
2022/09/21 04:17:22;;;;;;;;;2.00;2.00;;;;;11.49;73.87;100701.06;5078043;28;45310;-69
2022/09/21 04:19:48;;;;;;;;;0.00;0.00;;;;;11.58;73.72;100726.59;5078458;28;45325;-69
2022/09/21 04:22:14;;;;;;;;;1.75;1.75;;;;;11.44;73.99;100705.28;5078750;27;45427;-71
2022/09/21 04:24:39;;;;;;;;;1.00;0.75;;;;;11.05;73.52;100643.13;5078000;28;46019;-69
2022/09/21 04:27:09;;;;;;;;;1.00;1.00;;;;;11.53;73.26;100726.47;5078031;27;45460;-69
2022/09/21 04:29:35;;;;;;;;;1.00;1.00;;;;;11.41;74.21;100716.53;5078170;27;45349;-70
2022/09/21 04:32:01;;;;;;;;;1.33;1.00;;;;;11.57;73.79;100735.31;5078333;28;45227;-69
2022/09/21 04:34:27;;;;;;;;;1.00;1.00;;;;;11.61;73.97;100740.66;5077913;28;46167;-72
2022/09/21 04:36:53;;;;;;;;;1.00;1.00;;;;;11.54;74.17;100736.13;5077897;28;45464;-71
2022/09/21 04:39:19;;;;;;;;;1.00;1.00;;;;;11.40;74.28;100724.34;5078144;28;45341;-69
2022/09/21 04:41:45;;;;;;;;;1.25;1.25;;;;;11.39;74.78;100733.91;5078560;27;45461;-69
2022/09/21 04:44:10;;;;;;;;;1.25;1.00;;;;;11.45;74.74;100738.44;5077687;28;45410;-71
2022/09/21 04:46:36;;;;;;;;;2.25;2.00;;;;;11.40;75.12;100730.47;5076525;28;45528;-69
2022/09/21 04:49:01;;;;;;;;;0.75;0.50;;;;;11.45;75.21;100735.84;5078044;28;45350;-70
2022/09/21 04:51:27;;;;;;;;;1.00;1.00;;;;;11.43;74.55;100738.41;5078027;28;45235;-70
2022/09/21 04:53:52;;;;;;;;;2.00;1.75;;;;;11.41;74.80;100731.34;5077770;27;45495;-70
2022/09/21 04:56:18;;;;;;;;;3.00;3.00;;;;;11.48;74.22;100738.53;5077875;28;45433;-69
2022/09/21 04:58:44;;;;;;;;;4.00;3.00;;;;;11.41;74.25;100727.00;5078092;28;45293;-70
2022/09/21 05:01:10;;;;;;;;;4.25;4.00;;;;;11.47;73.90;100735.03;5077927;28;45388;-70
2022/09/21 05:03:36;;;;;;;;;3.00;2.00;;;;;11.52;73.95;100735.19;5077554;28;46484;-71
2022/09/21 05:06:02;;;;;;;;;0.50;0.50;;;;;11.47;74.24;100737.66;5077463;28;45366;-71
2022/09/21 05:11:15;;;;;;;;;1.50;1.50;;;;;11.46;74.17;100742.81;5077636;28;45456;-70
2022/09/21 05:13:41;;;;;;;;;2.00;2.00;;;;;11.37;73.96;100713.81;5077250;27;46512;-70
2022/09/21 05:16:08;;;;;;;;;2.75;2.00;;;;;11.50;73.79;100739.50;5077482;27;45456;-72
2022/09/21 05:18:34;;;;;;;;;1.00;1.00;;;;;11.43;74.52;100737.53;5077538;28;45387;-71
2022/09/21 05:21:01;;;;;;;;;1.00;1.00;;;;;11.46;74.38;100738.50;5077617;28;45516;-72
2022/09/21 05:23:29;;;;;;;;;1.00;1.00;;;;;11.48;74.34;100743.75;5077191;27;45416;-71
2022/09/21 05:25:55;;;;;;;;;2.00;1.75;;;;;11.46;74.46;100732.34;5078152;28;45434;-71
2022/09/21 05:28:21;;;;;;;;;2.00;1.75;;;;;11.21;74.42;100702.00;5081217;28;45401;-70
2022/09/21 05:31:01;;;;;;;;;1.00;1.00;;;;;11.39;74.06;100736.53;5081395;28;45464;-71
2022/09/21 05:33:29;;;;;;;;;1.00;1.00;;;;;11.44;74.39;100736.66;5080762;27;46198;-72
2022/09/21 05:36:01;;;;;;;;;1.00;1.00;;;;;11.43;75.00;100743.63;5080838;28;45424;-71
2022/09/21 05:38:26;;;;;;;;;1.75;1.75;;;;;11.39;75.42;100731.31;5081001;28;45988;-72
2022/09/21 05:40:52;;;;;;;;;1.75;1.25;;;;;11.36;75.36;100726.00;5081019;28;45368;-70
2022/09/21 05:43:18;;;;;;;;;2.00;2.00;;;;;11.41;74.98;100737.47;5079573;28;46465;-71
2022/09/21 05:45:56;;;;;;;;;3.25;2.50;;;;;11.47;74.71;100737.66;5080479;28;45425;-71
2022/09/21 05:48:32;;;;;;;;;3.75;2.00;;;;;11.48;75.57;100735.91;5081092;28;45299;-71
2022/09/21 05:51:09;;;;;;;;;2.00;1.50;;;;;11.24;74.77;100692.53;5080843;28;45226;-71
2022/09/21 05:53:48;;;;;;;;;1.00;1.00;;;;;11.54;74.61;100736.13;5080401;27;45479;-71
2022/09/21 05:56:32;;;;;;;;;2.75;2.00;;;;;11.59;74.18;100738.84;5080360;28;45467;-71
2022/09/21 05:59:19;;;;;;;;;1.75;1.00;;;;;11.61;74.52;100745.91;5096420;27;45544;-71
2022/09/21 06:02:07;;;;;;;;;2.00;2.00;;;;;11.60;74.83;100740.59;5080620;28;46022;-71
2022/09/21 06:04:33;;;;;;;;;3.50;3.00;;;;;11.39;75.01;100714.72;5078929;28;46822;-69
2022/09/21 06:06:59;;;;;;;;;2.00;2.00;;;;;11.31;74.87;100710.16;5080317;28;45236;-69
2022/09/21 06:09:25;;;;;;;;;3.00;3.00;;;;;11.47;75.19;100736.78;5080219;28;45416;-70
2022/09/21 06:11:51;;;;;;;;;2.00;2.00;;;;;11.29;75.44;100700.50;5080997;28;45472;-72
2022/09/21 06:14:23;;;;;;;;;2.25;2.00;;;;;11.50;75.38;100739.50;5080058;28;46090;-70
2022/09/21 06:16:49;;;;;;;;;2.00;2.00;;;;;11.64;75.39;100750.31;5080380;28;45226;-72
2022/09/21 06:19:15;;;;;;;;;2.00;2.00;;;;;11.63;74.84;100735.47;5080320;28;45339;-72
2022/09/21 06:21:40;;;;;;;;;0.75;0.75;;;;;11.14;74.14;100626.00;5080296;28;45416;-71
2022/09/21 06:24:06;;;;;;;;;1.00;1.00;;;;;11.71;74.31;100720.88;5080072;27;45540;-72
2022/09/21 06:26:32;;;;;;;;;2.00;2.00;;;;;11.76;74.40;100714.06;5079951;28;45301;-72
2022/09/21 06:28:57;;;;;;;;;1.25;1.25;;;;;11.87;74.53;100733.53;5079995;28;45259;-71
2022/09/21 06:31:23;;;;;;;;;2.00;2.00;;;;;11.97;74.35;100742.56;5080318;28;45450;-72
2022/09/21 06:33:49;;;;;;;;;3.00;3.00;;;;;12.07;73.36;100744.59;5079798;27;45469;-72
2022/09/21 06:36:15;;;;;;;;;2.00;2.00;;;;;12.10;72.99;100730.72;5079496;28;45384;-72
2022/09/21 06:38:40;;;;;;;;;6.75;6.75;;;;;12.09;72.75;100715.84;5079714;27;45501;-72
2022/09/21 06:41:06;;;;;;;;;6.00;5.75;;;;;12.19;72.43;100727.44;5079975;28;45518;-69
2022/09/21 06:43:32;;;;;;;;;7.50;5.50;;;;;12.23;72.75;100727.56;5079579;28;46029;-72
2022/09/21 06:45:59;;;;;;;;;2.75;2.00;;;;;12.40;72.77;100743.72;5079633;28;45670;-72
2022/09/21 06:48:26;;;;;;;;;3.00;2.25;;;;;12.46;72.53;100741.25;5080085;28;45512;-72
2022/09/21 06:50:59;;;;;;;;;1.00;1.00;;;;;12.48;72.47;100729.06;5080174;28;45504;-72
2022/09/21 06:53:26;;;;;;;;;4.00;1.25;;;;;12.67;71.69;100732.16;5079786;28;45371;-72
2022/09/21 06:55:51;;;;;;;;;1.25;1.00;;;;;13.08;70.84;100738.38;5079754;28;45514;-72
2022/09/21 06:58:18;;;;;;;;;2.00;1.00;;;;;16.00;63.44;100747.78;5079571;28;45327;-68
2022/09/21 07:00:43;;;;;;;;;2.00;2.00;;;;;18.64;58.06;100727.25;5079608;27;45311;-68
2022/09/21 07:03:12;;;;;;;;;1.67;1.67;;;;;20.77;52.10;100724.59;5079255;28;45308;-69
2022/09/21 07:05:38;;;;;;;;;1.33;1.33;;;;;22.39;46.87;100723.50;5079477;28;45244;-68
2022/09/21 07:08:05;;;;;;;;;2.33;2.33;;;;;23.62;44.83;100699.91;5079337;28;45305;-68
2022/09/21 07:10:31;;;;;;;;;2.00;2.00;;;;;24.90;41.28;100725.41;5079462;28;45470;-69
2022/09/21 07:13:04;;;;;;;;;1.33;1.00;;;;;25.73;38.79;100685.66;5079568;28;46036;-72
2022/09/21 07:15:31;;;;;;;;;2.00;1.00;;;;;26.24;36.86;100628.69;5077690;28;45362;-72
2022/09/21 07:17:56;;;;;;;;;2.00;1.00;;;;;27.45;36.70;100695.94;5079553;28;45301;-72
2022/09/21 07:20:22;;;;;;;;;2.00;2.00;;;;;28.22;33.52;100706.38;5079749;28;45413;-72
2022/09/21 07:22:48;;;;;;;;;1.33;1.33;;;;;28.70;32.77;100705.28;5078918;28;46366;-72
2022/09/21 07:25:14;;;;;;;;;1.33;1.33;;;;;29.34;31.92;100696.19;5079052;28;45246;-73
2022/09/21 07:27:39;;;;;;;;;1.00;1.00;;;;;30.05;31.55;100689.34;5077931;27;45495;-72
2022/09/21 07:30:06;;;;;;;;;1.00;1.00;;;;;30.43;31.46;100700.91;5079369;27;45226;-73
2022/09/21 07:32:32;;;;;;;;;3.33;1.67;;;;;30.97;30.85;100705.41;5078663;28;46926;-71
2022/09/21 07:34:57;;;;;;;;;3.33;3.33;;;;;31.51;28.73;100701.59;5079215;27;45266;-72
2022/09/21 07:37:24;;;;;;;;;2.00;1.00;;;;;31.91;28.67;100693.06;5079206;27;45364;-70
2022/09/21 07:39:51;;;;;;;;;1.67;1.00;;;;;32.37;28.20;100709.38;5079103;28;45452;-72
2022/09/21 07:42:19;;;;;;;;;0.00;0.00;;;;;32.67;27.60;100701.31;5078412;28;46476;-71
2022/09/21 07:44:45;;;;;;;;;1.00;1.00;;;;;32.56;27.87;100682.13;5078380;28;45483;-71
2022/09/21 07:47:12;;;;;;;;;1.00;1.00;;;;;32.91;27.86;100692.66;5077942;28;45201;-71
2022/09/21 07:49:38;;;;;;;;;20.00;19.00;;;;;33.20;27.05;100700.84;5077589;28;45482;-72
2022/09/21 07:52:04;;;;;;;;;5.67;5.00;;;;;33.66;27.17;100706.97;5078550;27;46118;-72
2022/09/21 07:54:32;;;;;;;;;1.00;1.00;;;;;34.05;26.79;100696.31;5078346;27;45452;-72
2022/09/21 07:59:42;;;;;;;;;1.33;1.00;;;;;34.60;24.88;100687.22;5078583;28;45544;-73
2022/09/21 08:02:07;;;;;;;;;1.67;1.67;;;;;34.28;25.53;100610.75;5077963;28;45959;-73
2022/09/21 08:04:33;;;;;;;;;1.00;0.67;;;;;34.92;24.97;100702.25;5077959;28;45482;-73
2022/09/21 08:06:58;;;;;;;;;1.67;1.33;;;;;35.06;25.07;100691.31;5078262;28;45463;-73
2022/09/21 08:09:24;;;;;;;;;3.67;3.00;;;;;35.53;24.21;100702.47;5078011;28;45358;-73
2022/09/21 08:11:50;;;;;;;;;3.00;2.33;;;;;35.46;24.73;100696.63;5077340;28;45530;-73
2022/09/21 08:14:19;;;;;;;;;1.00;0.67;;;;;34.14;25.93;100702.97;5077573;28;45495;-73
2022/09/21 08:16:46;;;;;;;;;0.67;0.67;;;;;34.66;25.67;100708.53;5077920;28;45417;-73
2022/09/21 08:19:16;;;;;;;;;2.67;2.33;;;;;35.32;25.56;100713.94;5078010;28;45377;-74
2022/09/21 08:21:42;;;;;;;;;0.67;0.67;;;;;36.05;24.61;100704.09;5077417;28;46486;-71
2022/09/21 08:24:08;;;;;;;;;1.67;1.33;;;;;36.14;24.54;100702.56;5077386;27;45508;-73
2022/09/21 08:26:34;;;;;;;;;1.00;1.00;;;;;35.53;24.79;100711.50;5077775;27;45387;-72
2022/09/21 08:29:00;;;;;;;;;2.67;1.67;;;;;35.60;25.11;100706.50;5078290;28;45376;-72
2022/09/21 08:31:25;;;;;;;;;1.33;1.00;;;;;34.25;26.42;100709.44;5077555;28;45406;-71
2022/09/21 08:33:53;;;;;;;;;1.00;0.33;;;;;34.43;27.06;100703.75;5077644;28;45475;-72
2022/09/21 08:36:19;;;;;;;;;0.67;0.67;;;;;33.63;27.63;100712.56;5076551;28;45484;-73
2022/09/21 08:38:47;;;;;;;;;2.00;1.67;;;;;32.34;29.12;100719.50;5077828;27;45467;-74
2022/09/21 08:41:27;;;;;;;;;1.67;1.67;;;;;33.75;28.43;100710.03;5077625;27;45214;-73
2022/09/21 08:44:17;;;;;;;;;0.33;0.33;;;;;35.22;26.64;100710.13;5077148;28;45527;-73
2022/09/21 08:46:47;;;;;;;;;4.33;1.33;;;;;36.08;24.94;100703.88;5077424;28;45334;-73
2022/09/21 08:49:20;;;;;;;;;1.00;0.67;;;;;35.65;25.27;100701.59;5077693;28;45511;-74
2022/09/21 08:52:02;;;;;;;;;1.00;1.00;;;;;34.53;26.82;100707.59;5076897;27;45434;-73
2022/09/21 08:54:36;;;;;;;;;1.33;1.00;;;;;34.44;26.49;100705.47;5077559;28;45349;-74
2022/09/21 08:57:02;;;;;;;;;3.67;3.67;;;;;34.78;25.72;100686.91;5077606;28;45464;-74
2022/09/21 08:59:28;;;;;;;;;1.33;1.33;;;;;35.02;25.63;100695.22;5077415;28;45506;-74
2022/09/21 09:02:11;;;;;;;;;0.67;0.67;;;;;34.83;26.29;100647.63;5076646;28;45440;-73
2022/09/21 09:04:56;;;;;;;;;1.00;1.00;;;;;35.24;26.25;100703.59;5076502;28;45475;-72
2022/09/21 09:07:41;;;;;;;;;0.67;0.67;;;;;35.22;26.09;100700.13;5077478;28;45265;-71
2022/09/21 09:10:27;;;;;;;;;1.00;0.33;;;;;35.28;26.30;100703.38;5077133;28;45475;-70
2022/09/21 09:13:12;;;;;;;;;1.00;1.00;;;;;35.20;26.71;100702.09;5076779;28;45938;-71
2022/09/21 09:16:00;;;;;;;;;0.67;0.67;;;;;35.06;26.33;100704.88;5076560;27;45458;-71
2022/09/21 09:18:41;;;;;;;;;2.67;2.67;;;;;34.76;26.18;100702.44;5077012;27;45313;-72
2022/09/21 09:21:19;;;;;;;;;2.67;2.33;;;;;34.24;26.41;100698.69;5076860;28;45266;-72
2022/09/21 09:23:48;;;;;;;;;12.00;10.67;;;;;34.11;27.03;100692.34;5076242;27;45388;-71
2022/09/21 09:26:38;;;;;;;;;2.33;1.67;;;;;34.16;27.37;100684.78;5076213;28;45369;-70
2022/09/21 09:29:17;;;;;;;;;2.33;2.33;;;;;34.44;27.06;100691.91;5077003;27;45397;-71
2022/09/21 09:31:44;;;;;;;;;1.67;1.33;;;;;34.40;26.39;100690.41;5076720;28;45487;-71
2022/09/21 09:34:30;;;;;;;;;0.67;0.67;;;;;34.60;26.79;100679.06;5074913;27;45341;-71
2022/09/21 09:37:09;;;;;;;;;1.67;1.67;;;;;34.71;27.70;100680.19;5076257;28;45279;-71
2022/09/21 09:39:35;;;;;;;;;1.67;1.67;;;;;35.14;25.43;100677.19;5092497;27;45274;-71
2022/09/21 09:42:22;;;;;;;;;1.33;1.00;;;;;35.28;25.79;100687.97;5077351;27;45385;-71
2022/09/21 09:45:02;;;;;;;;;2.67;1.67;;;;;35.58;25.01;100679.44;5076676;28;45445;-71
2022/09/21 09:48:06;;;;;;;;;2.33;1.67;;;;;35.54;24.70;100680.66;5075159;28;45285;-73
2022/09/21 09:50:38;;;;;;;;;1.67;1.67;;;;;35.66;26.06;100668.03;5077114;27;45376;-71
2022/09/21 09:53:15;;;;;;;;;5.00;5.00;;;;;35.73;24.92;100665.72;5077077;27;45350;-73
2022/09/21 09:55:45;;;;;;;;;1.67;1.67;;;;;35.98;24.29;100673.78;5075938;28;46180;-73
2022/09/21 09:58:39;;;;;;;;;0.67;0.00;;;;;36.17;24.61;100675.16;5075126;28;45410;-73
2022/09/21 10:01:05;;;;;;;;;3.00;1.67;;;;;36.54;24.19;100678.66;5072417;28;45495;-73
2022/09/21 10:03:30;;;;;;;;;1.67;1.00;;;;;36.60;23.16;100667.28;5075323;28;45428;-72
2022/09/21 10:05:56;;;;;;;;;2.00;1.33;;;;;36.45;23.65;100663.06;5076024;27;46588;-73
2022/09/21 10:08:38;;;;;;;;;1.00;1.00;;;;;36.68;24.22;100671.31;5075778;28;45503;-73
2022/09/21 10:11:04;;;;;;;;;2.67;1.00;;;;;36.13;23.91;100669.06;5075140;28;45555;-73
2022/09/21 10:13:35;;;;;;;;;2.00;1.67;;;;;35.55;24.89;100670.63;5079466;28;45495;-73
2022/09/21 10:16:27;;;;;;;;;1.67;1.67;;;;;34.86;26.00;100662.84;5078050;28;46683;-73
2022/09/21 10:18:57;;;;;;;;;1.67;1.67;;;;;33.80;27.28;100665.41;5078008;28;45498;-72
2022/09/21 10:21:36;;;;;;;;;2.33;1.33;;;;;33.71;27.36;100660.59;5078132;28;45192;-73
2022/09/21 10:24:19;;;;;;;;;1.67;1.67;;;;;33.97;26.98;100667.00;5079989;27;45402;-71
2022/09/21 10:26:53;;;;;;;;;1.67;1.67;;;;;33.73;27.27;100657.81;5079159;28;46430;-71
2022/09/21 10:29:29;;;;;;;;;2.00;2.00;;;;;33.34;27.19;100649.38;5077237;28;45295;-71
2022/09/21 10:31:56;;;;;;;;;3.00;2.00;;;;;33.47;27.38;100663.91;5079502;28;45504;-71
2022/09/21 10:34:22;;;;;;;;;2.00;2.00;;;;;33.34;27.42;100662.94;5079223;28;45403;-71
2022/09/21 10:36:56;;;;;;;;;6.67;4.67;;;;;33.38;27.63;100655.50;5078532;28;46046;-71
2022/09/21 10:39:25;;;;;;;;;2.00;2.00;;;;;33.45;27.45;100651.44;5079033;28;45410;-72
2022/09/21 10:42:11;;;;;;;;;3.00;3.00;;;;;33.48;27.33;100648.50;5078936;28;45287;-71
2022/09/21 10:44:42;;;;;;;;;4.00;3.00;;;;;33.58;27.14;100646.94;5061126;28;45684;-72
2022/09/21 10:47:37;;;;;;;;;1.67;1.67;;;;;33.33;27.82;100638.69;5078816;28;45400;-72
2022/09/21 10:50:27;;;;;;;;;2.33;1.67;;;;;32.60;28.93;100647.66;5078390;28;45475;-72
2022/09/21 10:53:10;;;;;;;;;2.67;2.33;;;;;32.21;29.86;100640.94;5078899;28;45436;-71
2022/09/21 10:55:56;;;;;;;;;2.00;2.00;;;;;32.20;29.25;100639.22;5061193;28;45475;-71
2022/09/21 10:58:22;;;;;;;;;3.00;1.67;;;;;31.88;30.26;100634.69;5078474;28;45407;-70
2022/09/21 11:00:50;;;;;;;;;1.67;1.67;;;;;31.78;29.60;100630.78;5060539;28;45585;-71
2022/09/21 11:03:34;;;;;;;;;1.67;1.67;;;;;31.71;30.15;100635.69;5078818;28;45279;-70
2022/09/21 11:06:20;;;;;;;;;3.00;2.33;;;;;31.69;30.74;100642.09;5079020;28;45390;-72
2022/09/21 11:09:04;;;;;;;;;1.67;1.67;;;;;31.42;30.82;100626.47;5078505;28;46372;-70
2022/09/21 11:11:47;;;;;;;;;2.00;1.67;;;;;30.98;31.07;100639.69;5078896;28;45352;-70
2022/09/21 11:14:38;;;;;;;;;2.67;2.67;;;;;30.73;31.91;100636.44;5077816;28;45485;-70
2022/09/21 11:17:27;;;;;;;;;3.00;2.33;;;;;30.27;31.69;100621.78;5060465;28;45612;-69
2022/09/21 11:20:09;;;;;;;;;2.00;2.00;;;;;29.69;32.42;100621.00;5076978;28;46225;-70
2022/09/21 11:22:45;;;;;;;;;3.33;3.00;;;;;29.55;33.34;100624.34;5077981;28;45426;-71
2022/09/21 11:25:21;;;;;;;;;4.00;3.33;;;;;29.45;33.75;100628.44;5077953;28;45548;-71
2022/09/21 11:27:55;;;;;;;;;3.00;3.00;;;;;29.09;34.07;100631.00;5079021;28;45315;-71
2022/09/21 11:30:21;;;;;;;;;3.00;3.00;;;;;28.70;33.77;100629.16;5078490;28;46471;-71
2022/09/21 11:33:01;;;;;;;;;5.00;5.00;;;;;28.64;34.41;100641.03;5078718;28;45396;-71
2022/09/21 11:35:48;;;;;;;;;2.33;2.33;;;;;28.48;34.99;100639.94;5077067;28;45331;-71
2022/09/21 11:38:48;;;;;;;;;4.00;4.00;;;;;28.52;35.04;100641.56;5077171;28;45583;-71
2022/09/21 11:42:04;;;;;;;;;4.00;3.00;;;;;28.68;35.44;100634.59;5076743;28;48117;-70
2022/09/21 11:44:41;;;;;;;;;7.00;6.00;;;;;28.75;34.99;100632.53;5038464;28;45479;-70
2022/09/21 11:47:09;;;;;;;;;5.67;5.00;;;;;28.74;35.08;100639.69;5055735;28;45571;-71
2022/09/21 11:50:09;;;;;;;;;4.00;4.00;;;;;28.23;35.29;100637.41;5057986;28;45240;-71
2022/09/21 11:52:48;;;;;;;;;3.00;2.33;;;;;28.01;35.81;100619.50;5076094;28;45545;-71